sensor_id;sensor_type;location;lat;lon;timestamp;P1;durP1;ratioP1;P2;durP2;ratioP2
12758;SDS011;20944;47.048;15.390;2024-02-28T00:00:29;10.33;;;5.03;;
12758;SDS011;20944;47.048;15.390;2024-02-28T00:02:58;6.10;;;4.40;;
12758;SDS011;20944;47.048;15.390;2024-02-28T00:05:26;7.53;;;4.67;;
12758;SDS011;20944;47.048;15.390;2024-02-28T00:07:55;9.00;;;5.83;;
12758;SDS011;20944;47.048;15.390;2024-02-28T00:10:23;7.33;;;5.50;;
12758;SDS011;20944;47.048;15.390;2024-02-28T00:12:51;9.07;;;5.53;;
12758;SDS011;20944;47.048;15.390;2024-02-28T00:15:20;7.10;;;5.10;;
12758;SDS011;20944;47.048;15.390;2024-02-28T00:17:51;10.10;;;5.80;;
12758;SDS011;20944;47.048;15.390;2024-02-28T00:20:21;13.00;;;6.30;;
12758;SDS011;20944;47.048;15.390;2024-02-28T00:22:51;9.70;;;5.50;;
12758;SDS011;20944;47.048;15.390;2024-02-28T00:25:21;10.50;;;6.53;;
12758;SDS011;20944;47.048;15.390;2024-02-28T00:27:50;7.70;;;5.67;;
12758;SDS011;20944;47.048;15.390;2024-02-28T00:30:18;11.83;;;6.83;;
12758;SDS011;20944;47.048;15.390;2024-02-28T00:32:46;9.23;;;5.90;;
12758;SDS011;20944;47.048;15.390;2024-02-28T00:35:14;9.33;;;6.40;;
12758;SDS011;20944;47.048;15.390;2024-02-28T00:37:44;10.57;;;6.50;;
12758;SDS011;20944;47.048;15.390;2024-02-28T00:40:12;7.63;;;5.37;;
12758;SDS011;20944;47.048;15.390;2024-02-28T00:42:40;11.30;;;5.83;;
12758;SDS011;20944;47.048;15.390;2024-02-28T00:45:09;7.73;;;6.00;;
12758;SDS011;20944;47.048;15.390;2024-02-28T00:47:37;10.17;;;5.60;;
12758;SDS011;20944;47.048;15.390;2024-02-28T00:50:07;7.63;;;5.40;;
12758;SDS011;20944;47.048;15.390;2024-02-28T00:52:35;6.03;;;4.97;;
12758;SDS011;20944;47.048;15.390;2024-02-28T00:55:06;5.30;;;3.33;;
12758;SDS011;20944;47.048;15.390;2024-02-28T00:57:34;5.47;;;3.47;;
12758;SDS011;20944;47.048;15.390;2024-02-28T01:00:03;4.50;;;3.70;;
12758;SDS011;20944;47.048;15.390;2024-02-28T01:02:32;7.03;;;4.30;;
12758;SDS011;20944;47.048;15.390;2024-02-28T01:05:00;7.20;;;5.10;;
12758;SDS011;20944;47.048;15.390;2024-02-28T01:07:29;8.67;;;4.53;;
12758;SDS011;20944;47.048;15.390;2024-02-28T01:09:57;6.67;;;4.90;;
12758;SDS011;20944;47.048;15.390;2024-02-28T01:12:27;9.93;;;5.47;;
12758;SDS011;20944;47.048;15.390;2024-02-28T01:14:55;11.33;;;5.83;;
12758;SDS011;20944;47.048;15.390;2024-02-28T01:17:23;10.30;;;4.50;;
12758;SDS011;20944;47.048;15.390;2024-02-28T01:19:52;8.67;;;4.70;;
12758;SDS011;20944;47.048;15.390;2024-02-28T01:22:20;6.83;;;4.80;;
12758;SDS011;20944;47.048;15.390;2024-02-28T01:24:48;6.20;;;4.63;;
12758;SDS011;20944;47.048;15.390;2024-02-28T01:27:16;6.90;;;4.63;;
12758;SDS011;20944;47.048;15.390;2024-02-28T01:29:46;7.07;;;4.93;;
12758;SDS011;20944;47.048;15.390;2024-02-28T01:32:14;7.30;;;4.43;;
12758;SDS011;20944;47.048;15.390;2024-02-28T01:34:43;6.67;;;4.70;;
12758;SDS011;20944;47.048;15.390;2024-02-28T01:37:11;5.73;;;4.20;;
12758;SDS011;20944;47.048;15.390;2024-02-28T01:39:40;5.60;;;4.23;;
12758;SDS011;20944;47.048;15.390;2024-02-28T01:42:08;8.03;;;5.07;;
12758;SDS011;20944;47.048;15.390;2024-02-28T01:44:38;5.37;;;4.17;;
12758;SDS011;20944;47.048;15.390;2024-02-28T01:47:12;6.47;;;4.83;;
12758;SDS011;20944;47.048;15.390;2024-02-28T01:49:43;6.80;;;4.90;;
12758;SDS011;20944;47.048;15.390;2024-02-28T01:52:13;5.97;;;4.53;;
12758;SDS011;20944;47.048;15.390;2024-02-28T01:54:42;6.40;;;4.47;;
12758;SDS011;20944;47.048;15.390;2024-02-28T01:57:11;6.87;;;4.67;;
12758;SDS011;20944;47.048;15.390;2024-02-28T01:59:39;6.37;;;3.93;;
12758;SDS011;20944;47.048;15.390;2024-02-28T02:02:08;6.43;;;4.10;;
12758;SDS011;20944;47.048;15.390;2024-02-28T02:04:38;5.50;;;4.47;;
12758;SDS011;20944;47.048;15.390;2024-02-28T02:07:06;6.67;;;4.23;;
12758;SDS011;20944;47.048;15.390;2024-02-28T02:09:35;6.33;;;4.27;;
12758;SDS011;20944;47.048;15.390;2024-02-28T02:12:03;6.10;;;4.60;;
12758;SDS011;20944;47.048;15.390;2024-02-28T02:14:32;7.60;;;4.10;;
12758;SDS011;20944;47.048;15.390;2024-02-28T02:17:00;5.77;;;3.90;;
12758;SDS011;20944;47.048;15.390;2024-02-28T02:19:28;7.57;;;3.87;;
12758;SDS011;20944;47.048;15.390;2024-02-28T02:21:58;5.17;;;3.90;;
12758;SDS011;20944;47.048;15.390;2024-02-28T02:24:30;6.43;;;4.57;;
12758;SDS011;20944;47.048;15.390;2024-02-28T02:26:59;7.30;;;3.67;;
12758;SDS011;20944;47.048;15.390;2024-02-28T02:29:27;5.10;;;4.03;;
12758;SDS011;20944;47.048;15.390;2024-02-28T02:31:55;4.90;;;3.90;;
12758;SDS011;20944;47.048;15.390;2024-02-28T02:34:24;6.47;;;4.03;;
12758;SDS011;20944;47.048;15.390;2024-02-28T02:36:52;4.00;;;3.60;;
12758;SDS011;20944;47.048;15.390;2024-02-28T02:39:21;6.43;;;3.63;;
12758;SDS011;20944;47.048;15.390;2024-02-28T02:41:53;4.80;;;3.83;;
12758;SDS011;20944;47.048;15.390;2024-02-28T02:44:30;7.10;;;4.23;;
12758;SDS011;20944;47.048;15.390;2024-02-28T02:46:58;8.87;;;4.20;;
12758;SDS011;20944;47.048;15.390;2024-02-28T02:49:26;5.40;;;4.33;;
12758;SDS011;20944;47.048;15.390;2024-02-28T02:51:54;7.10;;;4.60;;
12758;SDS011;20944;47.048;15.390;2024-02-28T02:54:23;8.10;;;4.50;;
12758;SDS011;20944;47.048;15.390;2024-02-28T02:56:53;7.60;;;4.47;;
12758;SDS011;20944;47.048;15.390;2024-02-28T02:59:21;8.33;;;5.00;;
12758;SDS011;20944;47.048;15.390;2024-02-28T03:01:49;6.87;;;4.03;;
12758;SDS011;20944;47.048;15.390;2024-02-28T03:04:18;9.40;;;4.30;;
12758;SDS011;20944;47.048;15.390;2024-02-28T03:06:46;5.67;;;3.93;;
12758;SDS011;20944;47.048;15.390;2024-02-28T03:09:14;4.83;;;4.13;;
12758;SDS011;20944;47.048;15.390;2024-02-28T03:11:42;6.43;;;3.93;;
12758;SDS011;20944;47.048;15.390;2024-02-28T03:14:12;6.50;;;3.97;;
12758;SDS011;20944;47.048;15.390;2024-02-28T03:16:41;5.40;;;4.00;;
12758;SDS011;20944;47.048;15.390;2024-02-28T03:19:09;6.40;;;4.27;;
12758;SDS011;20944;47.048;15.390;2024-02-28T03:21:38;4.13;;;3.70;;
12758;SDS011;20944;47.048;15.390;2024-02-28T03:24:06;4.90;;;3.93;;
12758;SDS011;20944;47.048;15.390;2024-02-28T03:26:34;5.47;;;3.63;;
12758;SDS011;20944;47.048;15.390;2024-02-28T03:29:03;4.67;;;3.50;;
12758;SDS011;20944;47.048;15.390;2024-02-28T03:31:32;5.63;;;4.00;;
12758;SDS011;20944;47.048;15.390;2024-02-28T03:34:00;5.17;;;3.13;;
12758;SDS011;20944;47.048;15.390;2024-02-28T03:36:29;4.83;;;4.00;;
12758;SDS011;20944;47.048;15.390;2024-02-28T03:38:57;8.20;;;3.80;;
12758;SDS011;20944;47.048;15.390;2024-02-28T03:41:25;6.23;;;4.17;;
12758;SDS011;20944;47.048;15.390;2024-02-28T03:43:54;7.90;;;4.17;;
12758;SDS011;20944;47.048;15.390;2024-02-28T03:46:23;5.40;;;4.10;;
12758;SDS011;20944;47.048;15.390;2024-02-28T03:48:52;5.40;;;3.90;;
12758;SDS011;20944;47.048;15.390;2024-02-28T03:51:21;7.10;;;4.57;;
12758;SDS011;20944;47.048;15.390;2024-02-28T03:53:49;6.00;;;3.63;;
12758;SDS011;20944;47.048;15.390;2024-02-28T03:56:21;4.10;;;3.50;;
12758;SDS011;20944;47.048;15.390;2024-02-28T03:58:52;5.07;;;3.57;;
12758;SDS011;20944;47.048;15.390;2024-02-28T04:01:20;9.60;;;3.70;;
12758;SDS011;20944;47.048;15.390;2024-02-28T04:03:49;6.53;;;3.77;;
12758;SDS011;20944;47.048;15.390;2024-02-28T04:06:18;4.50;;;3.27;;
12758;SDS011;20944;47.048;15.390;2024-02-28T04:08:47;6.17;;;3.43;;
12758;SDS011;20944;47.048;15.390;2024-02-28T04:11:15;6.63;;;3.23;;
12758;SDS011;20944;47.048;15.390;2024-02-28T04:13:43;7.00;;;3.73;;
12758;SDS011;20944;47.048;15.390;2024-02-28T04:16:11;8.37;;;4.47;;
12758;SDS011;20944;47.048;15.390;2024-02-28T04:18:40;4.60;;;3.63;;
12758;SDS011;20944;47.048;15.390;2024-02-28T04:21:08;4.77;;;3.90;;
12758;SDS011;20944;47.048;15.390;2024-02-28T04:23:38;4.43;;;3.43;;
12758;SDS011;20944;47.048;15.390;2024-02-28T04:26:08;4.17;;;3.03;;
12758;SDS011;20944;47.048;15.390;2024-02-28T04:28:36;6.07;;;3.80;;
12758;SDS011;20944;47.048;15.390;2024-02-28T04:31:04;5.93;;;3.00;;
12758;SDS011;20944;47.048;15.390;2024-02-28T04:33:33;5.30;;;3.30;;
12758;SDS011;20944;47.048;15.390;2024-02-28T04:36:01;5.07;;;3.50;;
12758;SDS011;20944;47.048;15.390;2024-02-28T04:38:30;4.33;;;3.80;;
12758;SDS011;20944;47.048;15.390;2024-02-28T04:40:59;5.03;;;2.80;;
12758;SDS011;20944;47.048;15.390;2024-02-28T04:43:28;3.90;;;2.95;;
12758;SDS011;20944;47.048;15.390;2024-02-28T04:45:56;2.73;;;2.53;;
12758;SDS011;20944;47.048;15.390;2024-02-28T04:48:25;18.63;;;3.37;;
12758;SDS011;20944;47.048;15.390;2024-02-28T04:50:53;6.57;;;2.93;;
12758;SDS011;20944;47.048;15.390;2024-02-28T04:53:21;9.43;;;3.20;;
12758;SDS011;20944;47.048;15.390;2024-02-28T04:55:50;4.20;;;2.93;;
12758;SDS011;20944;47.048;15.390;2024-02-28T04:58:19;4.37;;;3.47;;
12758;SDS011;20944;47.048;15.390;2024-02-28T05:00:47;6.63;;;4.73;;
12758;SDS011;20944;47.048;15.390;2024-02-28T05:03:17;5.97;;;4.27;;
12758;SDS011;20944;47.048;15.390;2024-02-28T05:05:45;7.07;;;4.90;;
12758;SDS011;20944;47.048;15.390;2024-02-28T05:08:13;6.67;;;5.03;;
12758;SDS011;20944;47.048;15.390;2024-02-28T05:10:42;9.10;;;6.47;;
12758;SDS011;20944;47.048;15.390;2024-02-28T05:13:10;12.80;;;6.47;;
12758;SDS011;20944;47.048;15.390;2024-02-28T05:15:39;11.53;;;6.77;;
12758;SDS011;20944;47.048;15.390;2024-02-28T05:18:08;28.37;;;6.97;;
12758;SDS011;20944;47.048;15.390;2024-02-28T05:20:36;9.73;;;7.00;;
12758;SDS011;20944;47.048;15.390;2024-02-28T05:23:04;13.23;;;7.30;;
12758;SDS011;20944;47.048;15.390;2024-02-28T05:25:33;10.47;;;5.90;;
12758;SDS011;20944;47.048;15.390;2024-02-28T05:28:01;13.33;;;7.27;;
12758;SDS011;20944;47.048;15.390;2024-02-28T05:30:29;13.10;;;6.50;;
12758;SDS011;20944;47.048;15.390;2024-02-28T05:33:02;15.73;;;6.87;;
12758;SDS011;20944;47.048;15.390;2024-02-28T05:35:37;17.57;;;6.97;;
12758;SDS011;20944;47.048;15.390;2024-02-28T05:38:05;15.47;;;6.90;;
12758;SDS011;20944;47.048;15.390;2024-02-28T05:40:34;9.97;;;6.43;;
12758;SDS011;20944;47.048;15.390;2024-02-28T05:43:02;9.53;;;6.70;;
12758;SDS011;20944;47.048;15.390;2024-02-28T05:45:30;11.70;;;5.80;;
12758;SDS011;20944;47.048;15.390;2024-02-28T05:48:00;10.63;;;6.83;;
12758;SDS011;20944;47.048;15.390;2024-02-28T05:50:28;11.63;;;6.37;;
12758;SDS011;20944;47.048;15.390;2024-02-28T05:52:59;7.53;;;5.37;;
12758;SDS011;20944;47.048;15.390;2024-02-28T05:55:27;11.27;;;6.67;;
12758;SDS011;20944;47.048;15.390;2024-02-28T05:57:56;15.03;;;6.03;;
12758;SDS011;20944;47.048;15.390;2024-02-28T06:00:24;23.20;;;7.03;;
12758;SDS011;20944;47.048;15.390;2024-02-28T06:02:52;20.50;;;5.70;;
12758;SDS011;20944;47.048;15.390;2024-02-28T06:05:22;29.37;;;6.77;;
12758;SDS011;20944;47.048;15.390;2024-02-28T06:07:50;20.63;;;7.13;;
12758;SDS011;20944;47.048;15.390;2024-02-28T06:10:18;13.70;;;8.00;;
12758;SDS011;20944;47.048;15.390;2024-02-28T06:12:47;13.37;;;6.73;;
12758;SDS011;20944;47.048;15.390;2024-02-28T06:15:15;11.30;;;7.27;;
12758;SDS011;20944;47.048;15.390;2024-02-28T06:17:44;14.37;;;8.10;;
12758;SDS011;20944;47.048;15.390;2024-02-28T06:20:12;13.37;;;7.37;;
12758;SDS011;20944;47.048;15.390;2024-02-28T06:22:42;13.00;;;7.30;;
12758;SDS011;20944;47.048;15.390;2024-02-28T06:25:10;12.23;;;7.20;;
12758;SDS011;20944;47.048;15.390;2024-02-28T06:27:45;13.00;;;7.77;;
12758;SDS011;20944;47.048;15.390;2024-02-28T06:30:14;16.10;;;7.17;;
12758;SDS011;20944;47.048;15.390;2024-02-28T06:32:44;15.07;;;7.93;;
12758;SDS011;20944;47.048;15.390;2024-02-28T06:35:12;11.40;;;7.10;;
12758;SDS011;20944;47.048;15.390;2024-02-28T06:37:42;19.27;;;7.30;;
12758;SDS011;20944;47.048;15.390;2024-02-28T06:40:16;10.07;;;7.20;;
12758;SDS011;20944;47.048;15.390;2024-02-28T06:42:44;9.73;;;6.60;;
12758;SDS011;20944;47.048;15.390;2024-02-28T06:45:13;9.23;;;5.87;;
12758;SDS011;20944;47.048;15.390;2024-02-28T06:47:41;11.07;;;7.60;;
12758;SDS011;20944;47.048;15.390;2024-02-28T06:50:11;9.30;;;7.40;;
12758;SDS011;20944;47.048;15.390;2024-02-28T06:52:41;10.83;;;7.83;;
12758;SDS011;20944;47.048;15.390;2024-02-28T06:55:10;11.93;;;6.80;;
12758;SDS011;20944;47.048;15.390;2024-02-28T06:57:40;13.03;;;6.90;;
12758;SDS011;20944;47.048;15.390;2024-02-28T07:00:10;11.57;;;6.67;;
12758;SDS011;20944;47.048;15.390;2024-02-28T07:02:41;13.60;;;7.53;;
12758;SDS011;20944;47.048;15.390;2024-02-28T07:05:09;13.73;;;7.07;;
12758;SDS011;20944;47.048;15.390;2024-02-28T07:07:38;13.43;;;7.73;;
12758;SDS011;20944;47.048;15.390;2024-02-28T07:10:08;10.60;;;7.60;;
12758;SDS011;20944;47.048;15.390;2024-02-28T07:12:37;13.57;;;8.10;;
12758;SDS011;20944;47.048;15.390;2024-02-28T07:15:05;12.90;;;7.77;;
12758;SDS011;20944;47.048;15.390;2024-02-28T07:17:34;11.10;;;7.10;;
12758;SDS011;20944;47.048;15.390;2024-02-28T07:20:02;10.87;;;7.47;;
12758;SDS011;20944;47.048;15.390;2024-02-28T07:22:31;14.27;;;8.20;;
12758;SDS011;20944;47.048;15.390;2024-02-28T07:24:59;13.27;;;7.27;;
12758;SDS011;20944;47.048;15.390;2024-02-28T07:27:29;12.83;;;7.10;;
12758;SDS011;20944;47.048;15.390;2024-02-28T07:29:57;17.00;;;7.13;;
12758;SDS011;20944;47.048;15.390;2024-02-28T07:32:25;11.50;;;7.77;;
12758;SDS011;20944;47.048;15.390;2024-02-28T07:34:54;15.17;;;7.43;;
12758;SDS011;20944;47.048;15.390;2024-02-28T07:37:22;24.47;;;8.53;;
12758;SDS011;20944;47.048;15.390;2024-02-28T07:39:50;12.37;;;7.50;;
12758;SDS011;20944;47.048;15.390;2024-02-28T07:42:18;12.90;;;7.57;;
12758;SDS011;20944;47.048;15.390;2024-02-28T07:44:48;18.77;;;7.77;;
12758;SDS011;20944;47.048;15.390;2024-02-28T07:47:20;14.17;;;7.20;;
12758;SDS011;20944;47.048;15.390;2024-02-28T07:49:49;15.07;;;8.27;;
12758;SDS011;20944;47.048;15.390;2024-02-28T07:52:17;13.37;;;7.73;;
12758;SDS011;20944;47.048;15.390;2024-02-28T07:54:45;12.77;;;7.57;;
12758;SDS011;20944;47.048;15.390;2024-02-28T07:57:14;13.90;;;7.50;;
12758;SDS011;20944;47.048;15.390;2024-02-28T07:59:42;15.40;;;8.20;;
12758;SDS011;20944;47.048;15.390;2024-02-28T08:02:12;14.13;;;7.93;;
12758;SDS011;20944;47.048;15.390;2024-02-28T08:04:41;20.27;;;8.23;;
12758;SDS011;20944;47.048;15.390;2024-02-28T08:07:09;28.53;;;8.53;;
12758;SDS011;20944;47.048;15.390;2024-02-28T08:09:38;22.07;;;7.63;;
12758;SDS011;20944;47.048;15.390;2024-02-28T08:12:06;21.03;;;8.20;;
12758;SDS011;20944;47.048;15.390;2024-02-28T08:14:35;36.00;;;7.07;;
12758;SDS011;20944;47.048;15.390;2024-02-28T08:17:03;39.53;;;7.97;;
12758;SDS011;20944;47.048;15.390;2024-02-28T08:19:33;31.07;;;7.87;;
12758;SDS011;20944;47.048;15.390;2024-02-28T08:22:02;16.10;;;7.30;;
12758;SDS011;20944;47.048;15.390;2024-02-28T08:24:30;11.23;;;7.70;;
12758;SDS011;20944;47.048;15.390;2024-02-28T08:26:58;11.80;;;8.33;;
12758;SDS011;20944;47.048;15.390;2024-02-28T08:29:27;13.43;;;8.47;;
12758;SDS011;20944;47.048;15.390;2024-02-28T08:31:55;13.50;;;8.07;;
12758;SDS011;20944;47.048;15.390;2024-02-28T08:34:23;12.03;;;7.97;;
12758;SDS011;20944;47.048;15.390;2024-02-28T08:36:53;16.20;;;8.73;;
12758;SDS011;20944;47.048;15.390;2024-02-28T08:39:21;15.33;;;8.07;;
12758;SDS011;20944;47.048;15.390;2024-02-28T08:41:50;14.17;;;8.60;;
12758;SDS011;20944;47.048;15.390;2024-02-28T08:44:18;12.57;;;7.67;;
12758;SDS011;20944;47.048;15.390;2024-02-28T08:46:47;13.67;;;8.57;;
12758;SDS011;20944;47.048;15.390;2024-02-28T08:49:15;14.53;;;8.80;;
12758;SDS011;20944;47.048;15.390;2024-02-28T08:51:44;11.97;;;8.27;;
12758;SDS011;20944;47.048;15.390;2024-02-28T08:54:16;12.73;;;8.53;;
12758;SDS011;20944;47.048;15.390;2024-02-28T08:56:45;12.97;;;8.53;;
12758;SDS011;20944;47.048;15.390;2024-02-28T08:59:22;13.47;;;8.90;;
12758;SDS011;20944;47.048;15.390;2024-02-28T09:01:50;13.07;;;8.83;;
12758;SDS011;20944;47.048;15.390;2024-02-28T09:04:19;16.50;;;8.40;;
12758;SDS011;20944;47.048;15.390;2024-02-28T09:06:47;15.63;;;9.70;;
12758;SDS011;20944;47.048;15.390;2024-02-28T09:09:17;13.07;;;9.27;;
12758;SDS011;20944;47.048;15.390;2024-02-28T09:11:45;17.03;;;9.37;;
12758;SDS011;20944;47.048;15.390;2024-02-28T09:14:14;14.73;;;9.63;;
12758;SDS011;20944;47.048;15.390;2024-02-28T09:16:42;13.87;;;9.10;;
12758;SDS011;20944;47.048;15.390;2024-02-28T09:19:10;14.77;;;9.30;;
12758;SDS011;20944;47.048;15.390;2024-02-28T09:21:39;12.87;;;9.90;;
12758;SDS011;20944;47.048;15.390;2024-02-28T09:24:07;14.00;;;9.20;;
12758;SDS011;20944;47.048;15.390;2024-02-28T09:26:39;13.60;;;9.83;;
12758;SDS011;20944;47.048;15.390;2024-02-28T09:29:08;14.70;;;9.33;;
12758;SDS011;20944;47.048;15.390;2024-02-28T09:31:36;12.93;;;8.97;;
12758;SDS011;20944;47.048;15.390;2024-02-28T09:34:04;15.80;;;9.77;;
12758;SDS011;20944;47.048;15.390;2024-02-28T09:36:40;16.83;;;9.73;;
12758;SDS011;20944;47.048;15.390;2024-02-28T09:39:11;13.07;;;8.37;;
12758;SDS011;20944;47.048;15.390;2024-02-28T09:41:42;15.63;;;9.27;;
12758;SDS011;20944;47.048;15.390;2024-02-28T09:44:11;11.80;;;9.03;;
12758;SDS011;20944;47.048;15.390;2024-02-28T09:46:39;12.07;;;9.00;;
12758;SDS011;20944;47.048;15.390;2024-02-28T09:49:09;11.83;;;8.37;;
12758;SDS011;20944;47.048;15.390;2024-02-28T09:51:38;15.43;;;8.87;;
12758;SDS011;20944;47.048;15.390;2024-02-28T09:54:06;11.27;;;8.23;;
12758;SDS011;20944;47.048;15.390;2024-02-28T09:56:34;10.93;;;8.27;;
12758;SDS011;20944;47.048;15.390;2024-02-28T09:59:04;11.53;;;7.67;;
12758;SDS011;20944;47.048;15.390;2024-02-28T10:01:35;10.97;;;8.00;;
12758;SDS011;20944;47.048;15.390;2024-02-28T10:04:11;11.10;;;7.70;;
12758;SDS011;20944;47.048;15.390;2024-02-28T10:06:41;8.57;;;7.00;;
12758;SDS011;20944;47.048;15.390;2024-02-28T10:09:09;13.37;;;7.40;;
12758;SDS011;20944;47.048;15.390;2024-02-28T10:11:37;10.47;;;7.27;;
12758;SDS011;20944;47.048;15.390;2024-02-28T10:14:10;9.57;;;6.83;;
12758;SDS011;20944;47.048;15.390;2024-02-28T10:16:38;9.63;;;6.27;;
12758;SDS011;20944;47.048;15.390;2024-02-28T10:19:07;9.70;;;7.03;;
12758;SDS011;20944;47.048;15.390;2024-02-28T10:21:35;9.90;;;6.67;;
12758;SDS011;20944;47.048;15.390;2024-02-28T10:24:04;11.00;;;6.03;;
12758;SDS011;20944;47.048;15.390;2024-02-28T10:26:41;8.07;;;6.50;;
12758;SDS011;20944;47.048;15.390;2024-02-28T10:29:11;8.27;;;6.00;;
12758;SDS011;20944;47.048;15.390;2024-02-28T10:31:41;7.43;;;5.80;;
12758;SDS011;20944;47.048;15.390;2024-02-28T10:34:12;6.30;;;4.70;;
12758;SDS011;20944;47.048;15.390;2024-02-28T10:36:44;7.00;;;4.50;;
12758;SDS011;20944;47.048;15.390;2024-02-28T10:39:14;5.53;;;3.77;;
12758;SDS011;20944;47.048;15.390;2024-02-28T10:41:43;5.80;;;3.60;;
12758;SDS011;20944;47.048;15.390;2024-02-28T10:44:16;4.30;;;2.80;;
12758;SDS011;20944;47.048;15.390;2024-02-28T10:46:45;5.77;;;3.37;;
12758;SDS011;20944;47.048;15.390;2024-02-28T10:49:18;6.27;;;3.57;;
12758;SDS011;20944;47.048;15.390;2024-02-28T10:51:47;5.50;;;3.00;;
12758;SDS011;20944;47.048;15.390;2024-02-28T10:54:18;5.50;;;3.53;;
12758;SDS011;20944;47.048;15.390;2024-02-28T10:56:49;4.67;;;3.37;;
12758;SDS011;20944;47.048;15.390;2024-02-28T10:59:21;4.70;;;3.33;;
12758;SDS011;20944;47.048;15.390;2024-02-28T11:01:53;5.50;;;4.00;;
12758;SDS011;20944;47.048;15.390;2024-02-28T11:04:22;6.80;;;3.45;;
12758;SDS011;20944;47.048;15.390;2024-02-28T11:06:51;5.17;;;3.43;;
12758;SDS011;20944;47.048;15.390;2024-02-28T11:09:23;11.93;;;3.77;;
12758;SDS011;20944;47.048;15.390;2024-02-28T11:11:53;8.83;;;4.17;;
12758;SDS011;20944;47.048;15.390;2024-02-28T11:14:24;10.90;;;4.87;;
12758;SDS011;20944;47.048;15.390;2024-02-28T11:17:00;9.37;;;5.97;;
12758;SDS011;20944;47.048;15.390;2024-02-28T11:19:30;8.13;;;5.30;;
12758;SDS011;20944;47.048;15.390;2024-02-28T11:22:00;15.30;;;4.80;;
12758;SDS011;20944;47.048;15.390;2024-02-28T11:24:31;7.23;;;5.43;;
12758;SDS011;20944;47.048;15.390;2024-02-28T11:27:01;7.33;;;4.90;;
12758;SDS011;20944;47.048;15.390;2024-02-28T11:29:31;8.77;;;4.73;;
12758;SDS011;20944;47.048;15.390;2024-02-28T11:32:00;7.13;;;5.03;;
12758;SDS011;20944;47.048;15.390;2024-02-28T11:34:28;5.87;;;4.20;;
12758;SDS011;20944;47.048;15.390;2024-02-28T11:36:57;10.50;;;4.77;;
12758;SDS011;20944;47.048;15.390;2024-02-28T11:39:26;7.67;;;4.70;;
12758;SDS011;20944;47.048;15.390;2024-02-28T11:42:02;8.07;;;4.37;;
12758;SDS011;20944;47.048;15.390;2024-02-28T11:44:38;12.30;;;3.70;;
12758;SDS011;20944;47.048;15.390;2024-02-28T11:47:08;9.13;;;4.43;;
12758;SDS011;20944;47.048;15.390;2024-02-28T11:49:38;7.75;;;3.97;;
12758;SDS011;20944;47.048;15.390;2024-02-28T11:52:06;8.35;;;3.53;;
12758;SDS011;20944;47.048;15.390;2024-02-28T11:54:36;2.87;;;2.63;;
12758;SDS011;20944;47.048;15.390;2024-02-28T11:57:04;5.63;;;3.23;;
12758;SDS011;20944;47.048;15.390;2024-02-28T11:59:32;6.53;;;3.60;;
12758;SDS011;20944;47.048;15.390;2024-02-28T12:02:10;3.93;;;2.27;;
12758;SDS011;20944;47.048;15.390;2024-02-28T12:04:39;2.55;;;2.35;;
12758;SDS011;20944;47.048;15.390;2024-02-28T12:07:08;7.82;;;2.17;;
12758;SDS011;20944;47.048;15.390;2024-02-28T12:09:36;3.03;;;1.60;;
12758;SDS011;20944;47.048;15.390;2024-02-28T12:12:08;3.05;;;1.90;;
12758;SDS011;20944;47.048;15.390;2024-02-28T12:14:36;3.38;;;1.70;;
12758;SDS011;20944;47.048;15.390;2024-02-28T12:17:07;5.20;;;2.00;;
12758;SDS011;20944;47.048;15.390;2024-02-28T12:19:36;3.13;;;1.92;;
12758;SDS011;20944;47.048;15.390;2024-02-28T12:22:04;2.73;;;1.57;;
12758;SDS011;20944;47.048;15.390;2024-02-28T12:24:34;2.00;;;1.52;;
12758;SDS011;20944;47.048;15.390;2024-02-28T12:27:02;4.55;;;2.13;;
12758;SDS011;20944;47.048;15.390;2024-02-28T12:29:31;2.80;;;1.70;;
12758;SDS011;20944;47.048;15.390;2024-02-28T12:31:59;4.80;;;1.40;;
12758;SDS011;20944;47.048;15.390;2024-02-28T12:34:29;8.13;;;1.90;;
12758;SDS011;20944;47.048;15.390;2024-02-28T12:36:57;2.92;;;1.65;;
12758;SDS011;20944;47.048;15.390;2024-02-28T12:39:26;4.97;;;2.65;;
12758;SDS011;20944;47.048;15.390;2024-02-28T12:41:55;7.68;;;2.15;;
12758;SDS011;20944;47.048;15.390;2024-02-28T12:44:23;2.10;;;1.65;;
12758;SDS011;20944;47.048;15.390;2024-02-28T12:46:51;3.67;;;1.92;;
12758;SDS011;20944;47.048;15.390;2024-02-28T12:49:19;5.00;;;2.08;;
12758;SDS011;20944;47.048;15.390;2024-02-28T12:51:49;3.47;;;2.33;;
12758;SDS011;20944;47.048;15.390;2024-02-28T12:54:18;2.70;;;2.05;;
12758;SDS011;20944;47.048;15.390;2024-02-28T12:56:47;3.28;;;1.83;;
12758;SDS011;20944;47.048;15.390;2024-02-28T12:59:16;3.72;;;2.60;;
12758;SDS011;20944;47.048;15.390;2024-02-28T13:01:44;2.22;;;1.83;;
12758;SDS011;20944;47.048;15.390;2024-02-28T13:04:14;3.10;;;2.20;;
12758;SDS011;20944;47.048;15.390;2024-02-28T13:06:43;4.13;;;1.80;;
12758;SDS011;20944;47.048;15.390;2024-02-28T13:09:12;2.97;;;2.00;;
12758;SDS011;20944;47.048;15.390;2024-02-28T13:11:41;2.67;;;1.90;;
12758;SDS011;20944;47.048;15.390;2024-02-28T13:14:09;5.22;;;2.30;;
12758;SDS011;20944;47.048;15.390;2024-02-28T13:16:38;2.28;;;1.50;;
12758;SDS011;20944;47.048;15.390;2024-02-28T13:19:06;4.95;;;2.10;;
12758;SDS011;20944;47.048;15.390;2024-02-28T13:21:34;6.03;;;1.83;;
12758;SDS011;20944;47.048;15.390;2024-02-28T13:24:03;2.90;;;1.88;;
12758;SDS011;20944;47.048;15.390;2024-02-28T13:26:33;2.20;;;1.50;;
12758;SDS011;20944;47.048;15.390;2024-02-28T13:29:02;3.45;;;1.75;;
12758;SDS011;20944;47.048;15.390;2024-02-28T13:31:30;3.42;;;2.35;;
12758;SDS011;20944;47.048;15.390;2024-02-28T13:33:58;2.70;;;1.65;;
12758;SDS011;20944;47.048;15.390;2024-02-28T13:36:30;2.13;;;1.92;;
12758;SDS011;20944;47.048;15.390;2024-02-28T13:38:59;4.30;;;2.00;;
12758;SDS011;20944;47.048;15.390;2024-02-28T13:41:27;2.70;;;1.67;;
12758;SDS011;20944;47.048;15.390;2024-02-28T13:43:57;6.38;;;1.73;;
12758;SDS011;20944;47.048;15.390;2024-02-28T13:46:25;2.28;;;1.92;;
12758;SDS011;20944;47.048;15.390;2024-02-28T13:48:53;5.00;;;2.42;;
12758;SDS011;20944;47.048;15.390;2024-02-28T13:51:22;3.35;;;2.17;;
12758;SDS011;20944;47.048;15.390;2024-02-28T13:53:50;1.80;;;1.67;;
12758;SDS011;20944;47.048;15.390;2024-02-28T13:56:20;7.57;;;2.13;;
12758;SDS011;20944;47.048;15.390;2024-02-28T13:58:49;3.35;;;1.85;;
12758;SDS011;20944;47.048;15.390;2024-02-28T14:01:21;4.68;;;1.83;;
12758;SDS011;20944;47.048;15.390;2024-02-28T14:03:49;4.22;;;1.50;;
12758;SDS011;20944;47.048;15.390;2024-02-28T14:06:17;3.78;;;1.95;;
12758;SDS011;20944;47.048;15.390;2024-02-28T14:08:46;4.70;;;1.70;;
12758;SDS011;20944;47.048;15.390;2024-02-28T14:11:14;3.47;;;1.55;;
12758;SDS011;20944;47.048;15.390;2024-02-28T14:13:44;1.77;;;1.48;;
12758;SDS011;20944;47.048;15.390;2024-02-28T14:16:13;4.82;;;1.60;;
12758;SDS011;20944;47.048;15.390;2024-02-28T14:18:42;2.25;;;1.40;;
12758;SDS011;20944;47.048;15.390;2024-02-28T14:21:11;3.67;;;1.33;;
12758;SDS011;20944;47.048;15.390;2024-02-28T14:23:40;3.08;;;1.65;;
12758;SDS011;20944;47.048;15.390;2024-02-28T14:26:09;3.22;;;1.60;;
12758;SDS011;20944;47.048;15.390;2024-02-28T14:28:38;2.15;;;1.75;;
12758;SDS011;20944;47.048;15.390;2024-02-28T14:31:06;1.50;;;1.40;;
12758;SDS011;20944;47.048;15.390;2024-02-28T14:33:34;2.92;;;1.60;;
12758;SDS011;20944;47.048;15.390;2024-02-28T14:36:05;2.88;;;1.60;;
12758;SDS011;20944;47.048;15.390;2024-02-28T14:38:33;3.40;;;1.40;;
12758;SDS011;20944;47.048;15.390;2024-02-28T14:41:02;4.68;;;1.70;;